createdAt,value
2022-12-20T00:01:17.846Z,101469.81
2022-12-20T00:03:44.869Z,101461.47
2022-12-20T00:06:12.781Z,101460.47
2022-12-20T00:08:39.531Z,101453.97
2022-12-20T00:11:07.271Z,101448.25
2022-12-20T00:13:34.653Z,101446.44
2022-12-20T00:16:21.916Z,101455.81
2022-12-20T00:18:52.314Z,101455.31
2022-12-20T00:21:18.769Z,101461.09
2022-12-20T00:23:45.251Z,101464.22
2022-12-20T00:26:14.290Z,101456.94
2022-12-20T00:28:42.308Z,101461.13
2022-12-20T00:31:11.848Z,101461.66
2022-12-20T00:33:39.561Z,101451.78
2022-12-20T00:36:07.271Z,101449.97
2022-12-20T00:38:34.720Z,101461.19
2022-12-20T00:41:03.980Z,101444.00
2022-12-20T00:43:31.864Z,101452.09
2022-12-20T00:45:58.812Z,101444.53
2022-12-20T00:48:25.873Z,101447.97
2022-12-20T00:50:52.911Z,101437.28
2022-12-20T00:53:26.088Z,101450.84
2022-12-20T00:55:53.043Z,101448.25
2022-12-20T00:58:19.959Z,101441.25
2022-12-20T01:00:52.228Z,101453.22
2022-12-20T01:03:22.816Z,101440.22
2022-12-20T01:05:53.932Z,101437.88
2022-12-20T01:08:22.121Z,101447.53
2022-12-20T01:10:59.984Z,101448.03
2022-12-20T01:13:27.213Z,101447.25
2022-12-20T01:15:53.947Z,101447.53
2022-12-20T01:18:20.402Z,101441.00
2022-12-20T01:20:46.889Z,101445.44
2022-12-20T01:23:13.266Z,101447.78
2022-12-20T01:25:39.703Z,101453.50
2022-12-20T01:28:06.142Z,101450.66
2022-12-20T01:30:32.699Z,101456.13
2022-12-20T01:32:59.072Z,101451.16
2022-12-20T01:35:25.563Z,101445.66
2022-12-20T01:37:51.969Z,101441.97
2022-12-20T01:40:18.438Z,101445.09
2022-12-20T01:42:44.860Z,101439.38
2022-12-20T01:45:20.666Z,101431.53
2022-12-20T01:47:47.702Z,101432.06
2022-12-20T01:50:14.093Z,101431.53
2022-12-20T01:52:45.796Z,101423.97
2022-12-20T01:55:20.212Z,101422.13
2022-12-20T01:57:49.243Z,101419.00
2022-12-20T02:00:17.137Z,101426.25
2022-12-20T02:02:46.732Z,101417.91
2022-12-20T02:05:14.777Z,101419.22
2022-12-20T02:07:43.723Z,101413.72
2022-12-20T02:10:12.008Z,101409.81
2022-12-20T02:12:42.032Z,101406.69
2022-12-20T02:15:21.318Z,101407.47
2022-12-20T02:18:12.505Z,101398.34
2022-12-20T02:21:13.146Z,101391.84
2022-12-20T02:24:17.660Z,101390.25
2022-12-20T02:27:00.761Z,101385.84
2022-12-20T02:29:40.708Z,101403.25
2022-12-20T02:32:27.834Z,101402.25
2022-12-20T02:34:54.941Z,101399.09
2022-12-20T02:37:21.531Z,101397.53
2022-12-20T02:39:49.260Z,101401.44
2022-12-20T02:42:19.862Z,101391.78
2022-12-20T02:45:10.945Z,101380.84
2022-12-20T02:47:42.730Z,101387.13
2022-12-20T02:50:10.555Z,101384.50
2022-12-20T02:52:42.527Z,101384.50
2022-12-20T02:55:09.528Z,101377.19
2022-12-20T02:58:05.317Z,101379.28
2022-12-20T03:00:37.308Z,101374.06
2022-12-20T03:03:24.477Z,101365.72
2022-12-20T03:05:54.745Z,101372.75
2022-12-20T03:08:23.056Z,101378.97
2022-12-20T03:10:50.783Z,101374.59
2022-12-20T03:13:17.908Z,101362.59
2022-12-20T03:15:44.734Z,101364.66
2022-12-20T03:18:11.138Z,101377.16
2022-12-20T03:20:40.535Z,101380.00
2022-12-20T03:23:07.083Z,101371.94
2022-12-20T03:25:33.595Z,101365.97
2022-12-20T03:28:00.167Z,101363.63
2022-12-20T03:30:26.682Z,101362.59
2022-12-20T03:32:53.164Z,101362.84
2022-12-20T03:35:19.549Z,101360.47
2022-12-20T03:37:46.017Z,101359.19
2022-12-20T03:40:12.936Z,101375.31
2022-12-20T03:42:39.350Z,101352.72
2022-12-20T03:45:06.405Z,101352.44
2022-12-20T03:47:32.829Z,101347.03
2022-12-20T03:49:59.218Z,101354.84
2022-12-20T03:52:25.617Z,101354.84
2022-12-20T03:54:52.142Z,101351.94
2022-12-20T03:57:18.575Z,101347.56
2022-12-20T03:59:45.112Z,101350.16
2022-12-20T04:02:12.076Z,101349.66
2022-12-20T04:04:38.584Z,101338.72
2022-12-20T04:07:05.054Z,101337.72
2022-12-20T04:09:31.486Z,101327.81
2022-12-20T04:11:57.933Z,101329.38
2022-12-20T04:14:24.328Z,101310.91
2022-12-20T04:16:50.911Z,101307.81
2022-12-20T04:19:17.347Z,101331.75
2022-12-20T04:21:44.021Z,101319.00
2022-12-20T04:24:10.617Z,101325.78
2022-12-20T04:26:37.500Z,101324.75
2022-12-20T04:29:03.954Z,101312.00
2022-12-20T04:31:30.420Z,101309.69
2022-12-20T04:33:56.978Z,101316.44
2022-12-20T04:36:23.365Z,101310.44
2022-12-20T04:38:49.833Z,101296.41
2022-12-20T04:41:22.604Z,101307.09
2022-12-20T04:43:57.461Z,101314.38
2022-12-20T04:46:25.915Z,101308.69
2022-12-20T04:48:57.810Z,101309.22
2022-12-20T04:51:25.886Z,101317.53
2022-12-20T04:53:52.371Z,101317.53
2022-12-20T04:56:25.160Z,101302.44
2022-12-20T04:58:52.876Z,101317.03
2022-12-20T05:01:20.401Z,101307.16
2022-12-20T05:03:47.597Z,101298.56
2022-12-20T05:06:14.683Z,101301.41
2022-12-20T05:08:41.890Z,101297.50
2022-12-20T05:11:08.881Z,101306.63
2022-12-20T05:13:35.636Z,101291.25
2022-12-20T05:16:02.328Z,101290.22
2022-12-20T05:18:29.053Z,101290.22
2022-12-20T05:21:18.553Z,101289.94
2022-12-20T05:24:03.418Z,101290.75
2022-12-20T05:26:32.979Z,101284.22
2022-12-20T05:28:59.460Z,101274.31
2022-12-20T05:31:26.140Z,101279.53
2022-12-20T05:33:52.714Z,101269.34
2022-12-20T05:36:19.254Z,101272.75
2022-12-20T05:38:46.010Z,101282.38
2022-12-20T05:41:12.460Z,101260.78
2022-12-20T05:43:38.858Z,101260.78
2022-12-20T05:46:05.385Z,101268.34
2022-12-20T05:48:31.930Z,101259.75
2022-12-20T05:50:59.034Z,101244.09
2022-12-20T05:53:26.592Z,101257.13
2022-12-20T05:55:54.379Z,101257.38
2022-12-20T05:58:21.034Z,101263.38
2022-12-20T06:00:47.600Z,101246.44
2022-12-20T06:03:15.428Z,101226.63
2022-12-20T06:05:43.909Z,101230.03
2022-12-20T06:08:11.754Z,101223.75
2022-12-20T06:10:40.406Z,101219.59
2022-12-20T06:13:07.525Z,101212.03
2022-12-20T06:15:34.441Z,101208.91
2022-12-20T06:18:00.965Z,101212.81
2022-12-20T06:20:28.565Z,101219.09
2022-12-20T06:22:55.109Z,101213.06
2022-12-20T06:25:21.547Z,101215.94
2022-12-20T06:27:47.984Z,101214.91
2022-12-20T06:30:15.158Z,101225.84
2022-12-20T06:32:41.648Z,101229.75
2022-12-20T06:35:08.624Z,101226.88
2022-12-20T06:37:36.261Z,101228.69
2022-12-20T06:40:03.556Z,101233.13
2022-12-20T06:42:30.037Z,101233.13
2022-12-20T06:44:56.786Z,101221.66
2022-12-20T06:47:23.254Z,101227.38
2022-12-20T06:49:49.661Z,101232.34
2022-12-20T06:52:16.127Z,101231.56
2022-12-20T06:54:42.615Z,101225.06
2022-12-20T06:57:09.166Z,101222.44
2022-12-20T06:59:35.571Z,101228.47
2022-12-20T07:02:02.805Z,101234.69
2022-12-20T07:04:29.426Z,101229.75
2022-12-20T07:06:57.053Z,101221.69
2022-12-20T07:09:23.519Z,101223.75
2022-12-20T07:11:50.140Z,101213.84
2022-12-20T07:14:16.531Z,101225.56
2022-12-20T07:16:46.303Z,101226.88
2022-12-20T07:19:16.942Z,101225.53
2022-12-20T07:21:43.833Z,101231.03
2022-12-20T07:24:10.778Z,101226.31
2022-12-20T07:26:37.456Z,101230.25
2022-12-20T07:29:04.102Z,101226.84
2022-12-20T07:31:30.570Z,101224.75
2022-12-20T07:33:57.374Z,101224.75
2022-12-20T07:36:23.811Z,101217.44
2022-12-20T07:38:50.673Z,101222.66
2022-12-20T07:41:18.436Z,101222.41
2022-12-20T07:43:45.328Z,101225.22
2022-12-20T07:46:15.143Z,101234.88
2022-12-20T07:48:41.898Z,101230.44
2022-12-20T07:51:13.057Z,101236.19
2022-12-20T07:53:46.911Z,101237.25
2022-12-20T07:56:15.066Z,101245.84
2022-12-20T07:58:43.211Z,101238.81
2022-12-20T08:01:11.340Z,101244.28
2022-12-20T08:03:44.210Z,101243.00
2022-12-20T08:06:10.775Z,101243.50
2022-12-20T08:08:43.098Z,101245.84
2022-12-20T08:11:11.093Z,101238.81
2022-12-20T08:13:45.661Z,101236.72
2022-12-20T08:16:13.116Z,101240.66
2022-12-20T08:18:39.520Z,101221.06
2022-12-20T08:21:05.975Z,101231.50
2022-12-20T08:23:32.566Z,101235.16
2022-12-20T08:26:01.593Z,101234.13
2022-12-20T08:28:28.125Z,101233.09
2022-12-20T08:31:02.631Z,101232.81
2022-12-20T08:33:29.569Z,101229.94
2022-12-20T08:36:00.228Z,101226.03
2022-12-20T08:38:28.564Z,101222.09
2022-12-20T08:40:55.495Z,101227.88
2022-12-20T08:43:22.300Z,101216.66
2022-12-20T08:45:55.394Z,101233.09
2022-12-20T08:48:22.584Z,101225.78
2022-12-20T08:50:58.121Z,101225.78
2022-12-20T08:53:25.511Z,101225.53
2022-12-20T08:55:52.248Z,101223.44
2022-12-20T08:58:19.064Z,101218.97
2022-12-20T09:00:47.903Z,101232.31
2022-12-20T09:03:15.322Z,101227.63
2022-12-20T09:05:46.547Z,101227.34
2022-12-20T09:08:14.725Z,101230.25
2022-12-20T09:10:41.476Z,101232.84
2022-12-20T09:13:09.821Z,101232.06
2022-12-20T09:15:36.417Z,101228.94
2022-12-20T09:18:04.129Z,101224.78
2022-12-20T09:20:30.701Z,101228.69
2022-12-20T09:23:00.045Z,101233.63
2022-12-20T09:25:28.077Z,101224.78
2022-12-20T09:27:57.501Z,101224.78
2022-12-20T09:30:24.284Z,101220.63
2022-12-20T09:32:51.107Z,101228.44
2022-12-20T09:35:22.799Z,101226.34
2022-12-20T09:37:49.825Z,101232.34
2022-12-20T09:40:21.997Z,101227.91
2022-12-20T09:42:50.151Z,101228.69
2022-12-20T09:45:27.064Z,101228.69
2022-12-20T09:47:53.966Z,101238.88
2022-12-20T09:50:27.127Z,101242.25
2022-12-20T09:52:57.686Z,101240.66
2022-12-20T09:55:42.626Z,101240.41
2022-12-20T09:58:52.395Z,101243.03
2022-12-20T10:01:27.767Z,101240.94
2022-12-20T10:04:00.333Z,101234.16
2022-12-20T10:06:50.957Z,101249.81
2022-12-20T10:09:37.137Z,101242.75
2022-12-20T10:12:39.043Z,101241.97
2022-12-20T10:15:31.417Z,101240.16
2022-12-20T10:18:36.997Z,101235.72
2022-12-20T10:21:16.061Z,101237.28
2022-12-20T10:26:39.299Z,101218.78
2022-12-20T10:29:05.703Z,101218.50
2022-12-20T10:31:32.319Z,101222.69
2022-12-20T10:33:59.160Z,101219.81
2022-12-20T10:36:27.564Z,101231.03
2022-12-20T10:39:14.306Z,101226.31
2022-12-20T10:41:40.662Z,101222.41
2022-12-20T10:44:14.258Z,101211.72
2022-12-20T10:46:57.045Z,101205.72
2022-12-20T10:49:37.169Z,101209.09
2022-12-20T10:52:09.815Z,101210.66
2022-12-20T10:54:42.175Z,101210.66
2022-12-20T10:57:29.766Z,101204.94
2022-12-20T11:00:01.893Z,101209.09
2022-12-20T11:02:39.541Z,101189.78
2022-12-20T11:05:13.079Z,101186.16
2022-12-20T11:08:24.601Z,101190.31
2022-12-20T11:10:38.353Z,101188.50
2022-12-20T11:13:04.854Z,101188.75
2022-12-20T11:15:36.277Z,101188.75
2022-12-20T11:18:13.803Z,101184.31
2022-12-20T11:20:52.024Z,101184.56
2022-12-20T11:23:41.666Z,101172.56
2022-12-20T11:26:11.140Z,101176.75
2022-12-20T11:29:08.800Z,101177.53
2022-12-20T11:31:45.011Z,101177.00
2022-12-20T11:34:22.824Z,101176.22
2022-12-20T11:37:18.552Z,101181.44
2022-12-20T11:40:01.061Z,101182.47
2022-12-20T11:43:01.004Z,101166.84
2022-12-20T11:45:54.639Z,101164.50
2022-12-20T11:48:46.518Z,101171.00
2022-12-20T11:51:26.360Z,101170.72
2022-12-20T11:54:13.775Z,101160.81
2022-12-20T11:56:44.732Z,101166.84
2022-12-20T11:59:11.719Z,101167.34
2022-12-20T12:01:44.771Z,101163.69
2022-12-20T12:04:17.338Z,101167.84
2022-12-20T12:06:48.738Z,101168.13
2022-12-20T12:09:37.689Z,101164.75
2022-12-20T12:12:14.458Z,101168.88
2022-12-20T12:15:09.881Z,101161.84
2022-12-20T12:17:57.725Z,101164.97
2022-12-20T12:20:27.247Z,101158.72
2022-12-20T12:23:01.735Z,101160.56
2022-12-20T12:25:28.172Z,101157.66
2022-12-20T12:27:54.749Z,101142.81
2022-12-20T12:30:21.491Z,101146.16
2022-12-20T12:32:56.954Z,101149.00
2022-12-20T12:35:50.542Z,101159.94
2022-12-20T12:38:35.196Z,101156.81
2022-12-20T12:41:20.327Z,101153.72
2022-12-20T12:43:49.805Z,101147.72
2022-12-20T12:46:22.798Z,101148.50
2022-12-20T12:49:10.780Z,101150.84
2022-12-20T12:51:43.923Z,101153.44
2022-12-20T12:54:22.100Z,101159.44
2022-12-20T12:56:50.815Z,101160.75
2022-12-20T12:59:29.389Z,101160.50
2022-12-20T13:02:16.570Z,101161.53
2022-12-20T13:04:59.990Z,101157.88
2022-12-20T13:07:35.484Z,101160.50
2022-12-20T13:10:18.396Z,101156.81
2022-12-20T13:13:14.602Z,101157.88
2022-12-20T13:15:40.954Z,101146.66
2022-12-20T13:18:13.560Z,101154.72
2022-12-20T13:20:40.132Z,101151.34
2022-12-20T13:23:10.385Z,101146.91
2022-12-20T13:25:48.602Z,101149.00
2022-12-20T13:28:24.136Z,101149.00
2022-12-20T13:30:53.656Z,101148.75
2022-12-20T13:33:41.907Z,101149.25
2022-12-20T13:36:11.450Z,101146.91
2022-12-20T13:38:47.064Z,101151.34
2022-12-20T13:41:34.460Z,101143.25
2022-12-20T13:44:27.895Z,101149.25
2022-12-20T13:47:15.617Z,101143.25
2022-12-20T13:49:43.639Z,101140.66
2022-12-20T13:52:21.514Z,101147.41
2022-12-20T13:54:52.346Z,101151.09
2022-12-20T13:57:29.000Z,101145.88
2022-12-20T14:00:05.413Z,101142.19
2022-12-20T14:02:40.193Z,101136.97
2022-12-20T14:05:13.658Z,101151.84
2022-12-20T14:07:40.775Z,101149.25
2022-12-20T14:10:21.121Z,101153.41
2022-12-20T14:12:47.619Z,101154.19
2022-12-20T14:15:26.746Z,101144.53
2022-12-20T14:17:53.408Z,101133.34
2022-12-20T14:20:25.771Z,101136.72
2022-12-20T14:23:15.464Z,101136.97
2022-12-20T14:25:55.554Z,101139.84
2022-12-20T14:28:37.092Z,101140.66
2022-12-20T14:31:05.226Z,101151.09
2022-12-20T14:33:31.694Z,101155.25
2022-12-20T14:36:17.965Z,101145.34
2022-12-20T14:38:52.446Z,101153.94
2022-12-20T14:41:40.059Z,101157.09
2022-12-20T14:44:06.781Z,101150.06
2022-12-20T14:46:35.615Z,101149.25
2022-12-20T14:49:36.469Z,101143.28
2022-12-20T14:52:11.623Z,101141.47
2022-12-20T14:57:37.035Z,101122.16
2022-12-20T15:00:14.522Z,101115.41
2022-12-20T15:02:59.870Z,101110.97
2022-12-20T15:05:35.928Z,101119.84
2022-12-20T15:08:18.355Z,101116.72
2022-12-20T15:11:03.468Z,101120.38
2022-12-20T15:13:41.330Z,101121.44
2022-12-20T15:16:19.907Z,101133.66
2022-12-20T15:18:48.120Z,101134.72
2022-12-20T15:21:30.979Z,101131.34
2022-12-20T15:24:00.447Z,101135.75
2022-12-20T15:26:28.637Z,101131.63
2022-12-20T15:28:55.354Z,101131.88
2022-12-20T15:31:30.868Z,101132.66
2022-12-20T15:34:02.295Z,101133.19
2022-12-20T15:36:29.872Z,101132.13
2022-12-20T15:39:14.699Z,101137.63
2022-12-20T15:41:46.460Z,101137.63
2022-12-20T15:44:20.670Z,101128.25
2022-12-20T15:46:47.755Z,101115.22
2022-12-20T15:49:27.375Z,101124.06
2022-12-20T15:51:54.907Z,101122.78
2022-12-20T15:54:29.081Z,101116.78
2022-12-20T15:57:00.014Z,101125.38
2022-12-20T16:02:25.367Z,101137.13
2022-12-20T16:04:52.620Z,101131.94
2022-12-20T16:07:19.307Z,101128.81
2022-12-20T16:09:45.721Z,101131.41
2022-12-20T16:12:19.442Z,101135.84
2022-12-20T16:14:45.926Z,101138.47
2022-12-20T16:17:16.665Z,101143.69
2022-12-20T16:19:43.756Z,101139.75
2022-12-20T16:22:17.105Z,101152.00
2022-12-20T16:24:43.746Z,101153.84
2022-12-20T16:27:10.459Z,101160.59
2022-12-20T16:29:37.015Z,101163.22
2022-12-20T16:32:08.028Z,101152.00
2022-12-20T16:34:34.700Z,101152.28
2022-12-20T16:37:01.748Z,101149.66
2022-12-20T16:39:28.540Z,101152.28
2022-12-20T16:41:54.993Z,101154.88
2022-12-20T16:44:22.930Z,101154.88
2022-12-20T16:46:49.414Z,101149.97
2022-12-20T16:49:20.433Z,101150.72
2022-12-20T16:51:48.764Z,101157.50
2022-12-20T16:54:23.173Z,101160.38
2022-12-20T16:56:56.623Z,101162.69
2022-12-20T16:59:24.303Z,101147.59
2022-12-20T17:01:54.295Z,101155.94
2022-12-20T17:04:21.473Z,101148.91
2022-12-20T17:06:48.787Z,101151.50
2022-12-20T17:09:18.629Z,101138.72
2022-12-20T17:11:45.513Z,101137.97
2022-12-20T17:14:13.248Z,101143.94
2022-12-20T17:16:40.796Z,101144.22
2022-12-20T17:19:07.594Z,101151.25
2022-12-20T17:24:31.562Z,101144.50
2022-12-20T17:26:58.130Z,101150.22
2022-12-20T17:29:24.651Z,101157.00
2022-12-20T17:31:51.452Z,101153.63
2022-12-20T17:34:26.564Z,101157.00
2022-12-20T17:36:57.947Z,101158.03
2022-12-20T17:39:25.517Z,101159.63
2022-12-20T17:41:54.073Z,101158.31
2022-12-20T17:44:21.963Z,101164.31
2022-12-20T17:46:48.495Z,101162.75
2022-12-20T17:49:15.979Z,101156.50
2022-12-20T17:51:43.394Z,101150.78
2022-12-20T17:54:18.473Z,101151.53
2022-12-20T17:56:45.292Z,101148.69
2022-12-20T17:59:12.929Z,101158.31
2022-12-20T18:01:40.650Z,101155.72
2022-12-20T18:04:09.679Z,101155.97
2022-12-20T18:06:38.606Z,101154.41
2022-12-20T18:09:27.480Z,101162.22
2022-12-20T18:11:54.283Z,101166.41
2022-12-20T18:14:20.730Z,101150.78
2022-12-20T18:16:47.504Z,101153.63
2022-12-20T18:19:19.211Z,101160.16
2022-12-20T18:21:45.775Z,101161.72
2022-12-20T18:24:14.456Z,101160.16
2022-12-20T18:26:41.597Z,101160.94
2022-12-20T18:29:09.456Z,101153.38
2022-12-20T18:31:36.013Z,101154.44
2022-12-20T18:34:02.833Z,101156.25
2022-12-20T18:36:31.520Z,101162.25
2022-12-20T18:38:59.658Z,101159.66
2022-12-20T18:41:28.366Z,101170.06
2022-12-20T18:44:02.222Z,101165.88
2022-12-20T18:46:28.941Z,101173.72
2022-12-20T18:48:58.721Z,101159.91
2022-12-20T18:51:28.495Z,101160.69
2022-12-20T18:53:56.885Z,101166.16
2022-12-20T18:56:29.498Z,101162.78
2022-12-20T18:58:56.707Z,101154.94
2022-12-20T19:01:26.910Z,101165.13
2022-12-20T19:03:54.786Z,101167.72
2022-12-20T19:06:22.444Z,101165.13
2022-12-20T19:08:49.556Z,101162.50
2022-12-20T19:11:19.457Z,101159.91
2022-12-20T19:13:46.336Z,101156.53
2022-12-20T19:16:21.673Z,101159.91
2022-12-20T19:18:48.784Z,101166.94
2022-12-20T19:21:21.622Z,101168.25
2022-12-20T19:23:50.839Z,101160.44
2022-12-20T19:26:19.524Z,101155.50
2022-12-20T19:28:47.046Z,101164.09
2022-12-20T19:31:21.625Z,101166.94
2022-12-20T19:33:49.471Z,101159.13
2022-12-20T19:36:17.280Z,101170.84
2022-12-20T19:38:45.731Z,101169.31
2022-12-20T19:41:13.281Z,101171.13
2022-12-20T19:43:40.334Z,101163.84
2022-12-20T19:46:08.068Z,101177.38
2022-12-20T19:48:35.250Z,101177.38
2022-12-20T19:51:15.243Z,101175.28
2022-12-20T19:53:44.375Z,101178.44
2022-12-20T19:56:12.999Z,101181.03
2022-12-20T19:58:40.488Z,101182.59
2022-12-20T20:01:08.828Z,101186.25
2022-12-20T20:03:36.491Z,101185.44
2022-12-20T20:06:04.744Z,101187.78
2022-12-20T20:08:32.475Z,101187.28
2022-12-20T20:11:05.252Z,101180.25
2022-12-20T20:13:35.739Z,101182.06
2022-12-20T20:16:04.244Z,101178.69
2022-12-20T20:18:34.166Z,101180.78
2022-12-20T20:21:08.910Z,101178.69
2022-12-20T20:23:37.050Z,101189.13
2022-12-20T20:26:07.644Z,101181.56
2022-12-20T20:28:41.940Z,101190.16
2022-12-20T20:31:13.563Z,101187.31
2022-12-20T20:33:40.214Z,101186.25
2022-12-20T20:36:07.161Z,101195.91
2022-12-20T20:38:34.539Z,101197.72
2022-12-20T20:41:01.125Z,101203.47
2022-12-20T20:43:29.729Z,101206.06
2022-12-20T20:45:56.942Z,101209.97
2022-12-20T20:48:23.581Z,101206.56
2022-12-20T20:50:50.127Z,101209.19
2022-12-20T20:53:16.567Z,101205.03
2022-12-20T20:55:43.014Z,101201.38
2022-12-20T20:58:09.543Z,101197.47
2022-12-20T21:00:36.104Z,101205.28
2022-12-20T21:03:02.723Z,101201.91
2022-12-20T21:08:15.928Z,101210.75
2022-12-20T21:10:42.926Z,101220.16
2022-12-20T21:13:09.626Z,101219.59
2022-12-20T21:15:36.191Z,101228.22
2022-12-20T21:18:02.783Z,101224.03
2022-12-20T21:20:29.203Z,101230.00
2022-12-20T21:22:55.694Z,101226.88
2022-12-20T21:25:22.175Z,101225.09
2022-12-20T21:27:48.737Z,101224.81
2022-12-20T21:30:15.415Z,101217.28
2022-12-20T21:32:41.920Z,101207.63
2022-12-20T21:35:08.807Z,101208.94
2022-12-20T21:37:35.278Z,101204.50
2022-12-20T21:40:01.792Z,101204.75
2022-12-20T21:42:28.201Z,101202.94
2022-12-20T21:44:54.669Z,101200.59
2022-12-20T21:47:21.201Z,101217.53
2022-12-20T21:49:47.656Z,101224.81
2022-12-20T21:52:14.267Z,101212.84
2022-12-20T21:54:40.743Z,101211.28
2022-12-20T21:57:07.178Z,101211.56
2022-12-20T21:59:33.717Z,101226.38
2022-12-20T22:02:00.313Z,101224.31
2022-12-20T22:04:27.068Z,101218.59
2022-12-20T22:06:53.879Z,101218.84
2022-12-20T22:09:20.392Z,101217.28
2022-12-20T22:11:50.859Z,101214.94
2022-12-20T22:14:17.455Z,101215.72
2022-12-20T22:16:44.285Z,101222.97
2022-12-20T22:19:13.214Z,101216.72
2022-12-20T22:21:40.142Z,101205.03
2022-12-20T22:24:07.126Z,101215.44
2022-12-20T22:26:34.307Z,101219.06
2022-12-20T22:29:03.952Z,101213.34
2022-12-20T22:31:30.719Z,101222.47
2022-12-20T22:33:57.957Z,101225.06
2022-12-20T22:36:25.310Z,101216.72
2022-12-20T22:38:55.353Z,101230.28
2022-12-20T22:41:28.669Z,101228.97
2022-12-20T22:43:57.015Z,101223.25
2022-12-20T22:49:15.505Z,101226.59
2022-12-20T22:51:41.971Z,101240.94
2022-12-20T22:54:08.457Z,101238.06
2022-12-20T22:56:34.966Z,101236.50
2022-12-20T22:59:01.684Z,101241.19
2022-12-20T23:01:28.294Z,101241.19
2022-12-20T23:03:55.018Z,101235.97
2022-12-20T23:06:21.707Z,101231.03
2022-12-20T23:08:48.963Z,101223.22
2022-12-20T23:11:37.206Z,101223.75
2022-12-20T23:14:23.541Z,101225.81
2022-12-20T23:16:50.645Z,101238.31
2022-12-20T23:19:17.171Z,101234.94
2022-12-20T23:22:02.573Z,101238.81
2022-12-20T23:24:29.045Z,101236.50
2022-12-20T23:26:56.392Z,101233.38
2022-12-20T23:29:22.967Z,101244.56
2022-12-20T23:31:49.463Z,101235.16
2022-12-20T23:34:16.131Z,101244.03
2022-12-20T23:36:42.736Z,101247.66
2022-12-20T23:39:09.679Z,101241.69
2022-12-20T23:41:36.160Z,101242.97
2022-12-20T23:44:06.548Z,101235.41
2022-12-20T23:46:34.052Z,101239.84
2022-12-20T23:49:00.609Z,101226.56
2022-12-20T23:51:27.135Z,101236.97
2022-12-20T23:53:53.614Z,101239.81
2022-12-20T23:56:22.034Z,101243.47
2022-12-20T23:58:53.878Z,101237.47
